createdAt,value
2022-09-05T00:02:30.957Z,99141.78
2022-09-05T00:05:35.210Z,99146.31
2022-09-05T00:08:18.034Z,99139.09
2022-09-05T00:11:39.401Z,99139.22
2022-09-05T00:13:43.500Z,99135.69
2022-09-05T00:16:34.184Z,99138.41
2022-09-05T00:24:20.641Z,99132.00
2022-09-05T00:24:37.159Z,99135.69
2022-09-05T00:25:40.046Z,99139.22
2022-09-05T00:28:25.876Z,99127.63
2022-09-05T00:31:53.910Z,99128.47
2022-09-05T00:34:16.265Z,99122.25
2022-09-05T00:36:46.642Z,99118.88
2022-09-05T00:39:19.698Z,99128.66
2022-09-05T00:41:50.617Z,99134.03
2022-09-05T00:44:21.674Z,99124.25
2022-09-05T00:46:57.243Z,99126.94
2022-09-05T00:49:29.043Z,99125.09
2022-09-05T00:52:01.684Z,99128.78
2022-09-05T00:54:57.013Z,99126.94
2022-09-05T00:57:53.950Z,99127.78
2022-09-05T01:00:24.296Z,99129.63
2022-09-05T01:03:19.223Z,99126.94
2022-09-05T01:06:00.357Z,99123.41
2022-09-05T01:08:43.140Z,99133.34
2022-09-05T01:11:15.189Z,99134.31
2022-09-05T01:13:47.102Z,99135.19
2022-09-05T01:16:24.384Z,99135.19
2022-09-05T01:19:01.716Z,99141.41
2022-09-05T01:22:01.493Z,99138.72
2022-09-05T01:25:05.238Z,99143.28
2022-09-05T01:29:14.527Z,99137.03
2022-09-05T01:30:41.087Z,99146.94
2022-09-05T01:33:19.473Z,99142.41
2022-09-05T01:36:22.419Z,99137.03
2022-09-05T01:40:11.607Z,99147.78
2022-09-05T01:41:54.471Z,99136.19
2022-09-05T01:44:47.394Z,99137.03
2022-09-05T01:47:37.026Z,99129.97
2022-09-05T01:50:22.037Z,99129.97
2022-09-05T01:53:05.433Z,99130.97
2022-09-05T01:56:04.008Z,99134.50
2022-09-05T01:58:53.048Z,99135.53
2022-09-05T02:01:33.060Z,99134.50
2022-09-05T02:04:35.142Z,99126.59
2022-09-05T02:07:19.870Z,99129.28
2022-09-05T02:10:38.315Z,99139.06
2022-09-05T02:13:19.513Z,99128.28
2022-09-05T02:15:57.741Z,99128.28
2022-09-05T02:18:42.226Z,99129.13
2022-09-05T02:21:12.884Z,99130.16
2022-09-05T02:23:45.338Z,99132.84
2022-09-05T02:26:18.052Z,99137.34
2022-09-05T02:28:51.325Z,99136.50
2022-09-05T02:31:22.885Z,99137.34
2022-09-05T02:34:01.939Z,99143.59
2022-09-05T02:36:36.944Z,99139.06
2022-09-05T02:45:00.200Z,99141.91
2022-09-05T02:45:21.696Z,99149.13
2022-09-05T02:45:25.488Z,99156.38
2022-09-05T02:48:12.717Z,99154.50
2022-09-05T02:57:26.301Z,99153.69
2022-09-05T02:57:37.223Z,99149.28
2022-09-05T02:57:43.082Z,99151.00
2022-09-05T03:00:05.716Z,99150.16
2022-09-05T03:02:45.973Z,99154.66
2022-09-05T03:05:19.227Z,99153.81
2022-09-05T03:08:24.205Z,99160.91
2022-09-05T03:11:31.068Z,99156.53
2022-09-05T03:14:56.474Z,99150.28
2022-09-05T03:17:54.640Z,99153.81
2022-09-05T03:21:08.961Z,99160.03
2022-09-05T03:24:21.706Z,99161.06
2022-09-05T03:27:33.908Z,99159.38
2022-09-05T03:30:12.303Z,99161.22
2022-09-05T03:33:21.906Z,99165.59
2022-09-05T03:36:47.808Z,99169.28
2022-09-05T03:40:00.717Z,99171.97
2022-09-05T03:42:53.868Z,99166.59
2022-09-05T03:45:58.092Z,99167.47
2022-09-05T03:48:41.148Z,99173.81
2022-09-05T03:57:04.465Z,99175.69
2022-09-05T03:57:14.942Z,99174.66
2022-09-05T03:58:31.814Z,99171.13
2022-09-05T04:02:46.470Z,99176.69
2022-09-05T04:08:10.979Z,99181.06
2022-09-05T04:08:24.351Z,99182.91
2022-09-05T04:09:51.530Z,99186.44
2022-09-05T04:12:22.570Z,99191.00
2022-09-05T04:14:53.520Z,99189.13
2022-09-05T04:17:28.617Z,99191.00
2022-09-05T04:20:01.139Z,99191.97
2022-09-05T04:22:36.476Z,99192.66
2022-09-05T04:25:12.476Z,99199.22
2022-09-05T04:27:47.378Z,99203.59
2022-09-05T04:30:38.270Z,99197.34
2022-09-05T04:33:16.991Z,99196.38
2022-09-05T04:35:53.326Z,99213.34
2022-09-05T04:38:37.147Z,99210.66
2022-09-05T04:41:09.597Z,99217.06
2022-09-05T04:43:42.001Z,99218.75
2022-09-05T04:46:19.727Z,99217.06
2022-09-05T04:48:55.980Z,99218.75
2022-09-05T04:52:00.771Z,99223.28
2022-09-05T04:54:35.690Z,99232.19
2022-09-05T04:57:16.143Z,99230.34
2022-09-05T05:06:05.502Z,99236.56
2022-09-05T05:06:10.314Z,99233.03
2022-09-05T05:06:17.541Z,99237.56
2022-09-05T05:08:23.531Z,99235.72
2022-09-05T05:16:39.793Z,99237.44
2022-09-05T05:18:09.259Z,99244.03
2022-09-05T05:18:14.998Z,99237.94
2022-09-05T05:19:47.338Z,99244.69
2022-09-05T05:22:30.685Z,99250.75
2022-09-05T05:24:59.224Z,99234.78
2022-09-05T05:27:29.810Z,99239.00
2022-09-05T05:30:03.305Z,99246.06
2022-09-05T05:32:46.165Z,99247.75
2022-09-05T05:35:17.023Z,99243.22
2022-09-05T05:37:46.938Z,99251.13
2022-09-05T05:40:21.108Z,99244.06
2022-09-05T05:42:49.689Z,99250.59
2022-09-05T05:45:21.497Z,99253.13
2022-09-05T05:47:51.511Z,99247.25
2022-09-05T05:50:34.487Z,99251.28
2022-09-05T05:53:42.433Z,99257.16
2022-09-05T05:56:40.077Z,99256.31
2022-09-05T05:59:33.317Z,99260.81
2022-09-05T06:03:24.927Z,99252.75
2022-09-05T06:06:23.019Z,99264.22
2022-09-05T06:15:02.809Z,99266.56
2022-09-05T06:15:06.531Z,99263.38
2022-09-05T06:17:01.095Z,99263.06
2022-09-05T06:22:06.098Z,99256.81
2022-09-05T06:24:21.434Z,99257.53
2022-09-05T06:27:03.069Z,99264.75
2022-09-05T06:29:39.765Z,99263.88
2022-09-05T06:32:22.125Z,99261.06
2022-09-05T06:35:27.675Z,99261.88
2022-09-05T06:38:12.914Z,99262.91
2022-09-05T06:40:48.905Z,99259.38
2022-09-05T06:43:33.026Z,99260.03
2022-09-05T06:46:13.097Z,99264.56
2022-09-05T06:49:30.817Z,99262.56
2022-09-05T06:52:29.424Z,99266.28
2022-09-05T06:55:50.327Z,99270.66
2022-09-05T06:58:53.968Z,99275.03
2022-09-05T07:01:59.568Z,99267.78
2022-09-05T07:05:24.164Z,99274.88
2022-09-05T07:07:24.453Z,99281.94
2022-09-05T07:09:59.586Z,99288.34
2022-09-05T07:12:30.377Z,99288.47
2022-09-05T07:15:14.576Z,99283.09
2022-09-05T07:18:09.500Z,99283.09
2022-09-05T07:21:15.622Z,99275.72
2022-09-05T07:24:06.140Z,99282.78
2022-09-05T07:26:54.694Z,99283.63
2022-09-05T07:29:27.719Z,99282.63
2022-09-05T07:31:57.104Z,99284.31
2022-09-05T07:34:29.108Z,99287.88
2022-09-05T07:37:14.316Z,99286.84
2022-09-05T07:39:49.447Z,99285.84
2022-09-05T07:42:21.446Z,99283.13
2022-09-05T07:44:54.116Z,99290.22
2022-09-05T07:47:24.548Z,99289.41
2022-09-05T07:51:27.950Z,99293.91
2022-09-05T07:56:50.492Z,99296.44
2022-09-05T07:57:10.466Z,99297.97
2022-09-05T07:58:26.132Z,99303.03
2022-09-05T08:00:56.367Z,99296.81
2022-09-05T08:03:27.689Z,99302.22
2022-09-05T08:05:58.369Z,99294.81
2022-09-05T08:08:30.010Z,99297.34
2022-09-05T08:11:25.476Z,99295.31
2022-09-05T08:14:38.451Z,99297.00
2022-09-05T08:16:48.095Z,99295.84
2022-09-05T08:19:41.931Z,99294.69
2022-09-05T08:22:16.285Z,99286.44
2022-09-05T08:24:48.291Z,99283.56
2022-09-05T08:27:20.163Z,99280.72
2022-09-05T08:29:57.408Z,99281.56
2022-09-05T08:32:46.527Z,99280.88
2022-09-05T08:35:18.899Z,99278.03
2022-09-05T08:37:48.178Z,99274.31
2022-09-05T08:40:27.204Z,99268.94
2022-09-05T08:44:14.956Z,99279.72
2022-09-05T08:46:47.489Z,99280.72
2022-09-05T08:49:37.893Z,99267.41
2022-09-05T08:52:11.705Z,99267.41
2022-09-05T08:54:49.304Z,99273.66
2022-09-05T08:57:20.297Z,99267.09
2022-09-05T09:00:18.702Z,99268.94
2022-09-05T09:03:04.042Z,99266.59
2022-09-05T09:06:22.193Z,99261.19
2022-09-05T09:09:06.196Z,99255.66
2022-09-05T09:11:36.807Z,99249.25
2022-09-05T09:14:32.082Z,99257.34
2022-09-05T09:17:10.818Z,99256.50
2022-09-05T09:19:48.087Z,99257.50
2022-09-05T09:22:24.430Z,99252.97
2022-09-05T09:25:14.739Z,99252.97
2022-09-05T09:28:47.477Z,99252.97
2022-09-05T09:30:58.900Z,99251.09
2022-09-05T09:33:38.165Z,99249.25
2022-09-05T09:36:11.311Z,99251.78
2022-09-05T09:38:47.167Z,99246.41
2022-09-05T09:41:45.482Z,99250.94
2022-09-05T09:45:22.518Z,99235.78
2022-09-05T09:48:52.223Z,99238.34
2022-09-05T09:51:34.911Z,99235.63
2022-09-05T09:54:49.481Z,99239.16
2022-09-05T09:57:56.020Z,99238.34
2022-09-05T10:00:24.895Z,99243.72
2022-09-05T10:09:15.019Z,99240.16
2022-09-05T10:10:47.499Z,99231.09
2022-09-05T10:10:54.220Z,99231.09
2022-09-05T10:13:29.258Z,99226.38
2022-09-05T10:16:45.599Z,99231.78
2022-09-05T10:20:10.882Z,99221.16
2022-09-05T10:23:04.232Z,99226.38
2022-09-05T10:26:01.804Z,99224.69
2022-09-05T10:28:36.516Z,99225.00
2022-09-05T10:33:10.493Z,99225.69
2022-09-05T10:35:18.285Z,99224.88
2022-09-05T10:36:58.000Z,99229.22
2022-09-05T10:39:30.057Z,99215.75
2022-09-05T10:42:03.597Z,99211.41
2022-09-05T10:44:40.748Z,99214.09
2022-09-05T10:47:19.335Z,99211.41
2022-09-05T10:49:50.920Z,99207.00
2022-09-05T10:52:23.168Z,99202.44
2022-09-05T10:55:14.962Z,99201.59
2022-09-05T10:57:58.039Z,99199.75
2022-09-05T11:02:21.385Z,99188.16
2022-09-05T11:03:53.896Z,99197.06
2022-09-05T11:06:28.275Z,99192.69
2022-09-05T11:09:03.140Z,99191.38
2022-09-05T11:11:39.578Z,99200.44
2022-09-05T11:14:27.452Z,99204.16
2022-09-05T11:16:57.018Z,99196.06
2022-09-05T11:19:29.756Z,99201.59
2022-09-05T11:22:05.270Z,99195.56
2022-09-05T11:24:51.973Z,99189.31
2022-09-05T11:27:28.993Z,99193.88
2022-09-05T11:29:59.578Z,99194.69
2022-09-05T11:39:51.928Z,99191.34
2022-09-05T11:39:54.023Z,99188.81
2022-09-05T11:40:04.116Z,99196.06
2022-09-05T11:42:25.827Z,99189.81
2022-09-05T11:45:06.033Z,99188.97
2022-09-05T11:48:34.090Z,99182.75
2022-09-05T11:51:39.828Z,99186.25
2022-09-05T11:55:01.800Z,99187.28
2022-09-05T11:57:47.189Z,99194.34
2022-09-05T12:00:33.554Z,99188.97
2022-09-05T12:03:57.323Z,99186.25
2022-09-05T12:06:57.441Z,99179.06
2022-09-05T12:09:39.011Z,99179.06
2022-09-05T12:12:39.576Z,99175.69
2022-09-05T12:15:26.113Z,99178.19
2022-09-05T12:18:12.473Z,99176.50
2022-09-05T12:21:07.927Z,99178.19
2022-09-05T12:24:36.806Z,99173.81
2022-09-05T12:27:41.322Z,99177.19
2022-09-05T12:29:38.795Z,99173.81
2022-09-05T12:34:02.755Z,99166.59
2022-09-05T12:36:13.113Z,99165.75
2022-09-05T12:40:44.809Z,99169.28
2022-09-05T12:41:42.756Z,99167.41
2022-09-05T12:44:38.435Z,99170.78
2022-09-05T12:47:16.678Z,99161.88
2022-09-05T12:50:02.818Z,99166.25
2022-09-05T12:52:44.926Z,99160.03
2022-09-05T12:55:22.901Z,99160.03
2022-09-05T13:02:40.302Z,99167.94
2022-09-05T13:03:04.284Z,99159.03
2022-09-05T13:03:53.526Z,99154.47
2022-09-05T13:06:31.214Z,99151.78
2022-09-05T13:09:04.323Z,99155.31
2022-09-05T13:14:54.430Z,99155.31
2022-09-05T13:14:56.697Z,99157.19
2022-09-05T13:17:22.050Z,99158.00
2022-09-05T13:19:52.252Z,99158.00
2022-09-05T13:22:23.973Z,99148.06
2022-09-05T13:25:00.041Z,99149.78
2022-09-05T13:27:31.919Z,99152.47
2022-09-05T13:33:18.592Z,99150.63
2022-09-05T13:37:55.275Z,99149.78
2022-09-05T13:38:12.464Z,99142.69
2022-09-05T13:38:56.144Z,99145.25
2022-09-05T13:41:28.876Z,99151.28
2022-09-05T13:44:24.766Z,99148.59
2022-09-05T13:46:58.703Z,99145.88
2022-09-05T13:49:32.265Z,99140.34
2022-09-05T13:52:21.233Z,99139.50
2022-09-05T13:54:53.467Z,99134.13
2022-09-05T13:57:33.143Z,99134.97
2022-09-05T14:00:53.585Z,99136.47
2022-09-05T14:04:05.825Z,99138.16
2022-09-05T14:10:35.856Z,99138.00
2022-09-05T14:13:05.778Z,99123.50
2022-09-05T14:15:40.986Z,99136.00
2022-09-05T14:18:21.577Z,99131.44
2022-09-05T14:21:15.281Z,99128.56
2022-09-05T14:23:54.104Z,99125.72
2022-09-05T14:26:30.287Z,99118.66
2022-09-05T14:29:07.525Z,99109.91
2022-09-05T14:37:39.200Z,99107.69
2022-09-05T14:37:40.362Z,99113.44
2022-09-05T14:38:09.534Z,99096.78
2022-09-05T14:41:47.133Z,99106.88
2022-09-05T14:44:58.143Z,99106.03
2022-09-05T14:47:49.631Z,99103.50
2022-09-05T14:50:40.701Z,99106.88
2022-09-05T14:57:23.313Z,99103.34
2022-09-05T15:02:41.334Z,99101.47
2022-09-05T15:02:43.485Z,99101.47
2022-09-05T15:05:41.842Z,99106.19
2022-09-05T15:08:33.258Z,99102.16
2022-09-05T15:12:16.061Z,99098.44
2022-09-05T15:13:57.355Z,99097.09
2022-09-05T15:16:28.867Z,99097.09
2022-09-05T15:18:58.626Z,99093.56
2022-09-05T15:21:34.354Z,99091.88
2022-09-05T15:24:17.176Z,99092.72
2022-09-05T15:26:51.943Z,99090.03
2022-09-05T15:29:24.696Z,99089.03
2022-09-05T15:32:07.615Z,99082.78
2022-09-05T15:34:38.848Z,99087.16
2022-09-05T15:37:24.242Z,99084.47
2022-09-05T15:40:21.969Z,99082.63
2022-09-05T15:42:55.296Z,99079.25
2022-09-05T15:45:27.469Z,99071.00
2022-09-05T15:48:14.730Z,99076.41
2022-09-05T15:50:46.119Z,99078.41
2022-09-05T15:53:24.172Z,99076.56
2022-09-05T15:56:00.120Z,99077.72
2022-09-05T15:58:52.383Z,99077.56
2022-09-05T16:01:46.411Z,99074.88
2022-09-05T16:06:00.824Z,99075.56
2022-09-05T16:10:31.653Z,99075.03
2022-09-05T16:10:41.148Z,99073.84
2022-09-05T16:12:43.637Z,99080.94
2022-09-05T16:17:04.649Z,99066.81
2022-09-05T16:23:15.774Z,99070.50
2022-09-05T16:23:31.435Z,99067.13
2022-09-05T16:23:49.200Z,99071.53
2022-09-05T16:26:25.646Z,99070.81
2022-09-05T16:28:59.182Z,99067.84
2022-09-05T16:31:37.537Z,99067.97
2022-09-05T16:34:10.335Z,99068.84
2022-09-05T16:37:07.142Z,99061.06
2022-09-05T16:39:38.662Z,99059.41
2022-09-05T16:42:13.595Z,99065.13
2022-09-05T16:44:46.797Z,99070.50
2022-09-05T16:47:23.266Z,99063.41
2022-09-05T16:49:58.763Z,99061.75
2022-09-05T16:52:36.701Z,99065.44
2022-09-05T16:55:11.986Z,99060.03
2022-09-05T16:57:43.394Z,99055.34
2022-09-05T17:00:12.838Z,99057.00
2022-09-05T17:02:44.301Z,99053.34
2022-09-05T17:05:14.277Z,99057.88
2022-09-05T17:08:05.064Z,99053.34
2022-09-05T17:10:35.994Z,99054.50
2022-09-05T17:13:04.494Z,99054.31
2022-09-05T17:15:36.030Z,99062.75
2022-09-05T17:18:21.610Z,99062.25
2022-09-05T17:20:54.999Z,99056.03
2022-09-05T17:29:19.470Z,99066.47
2022-09-05T17:29:28.327Z,99067.47
2022-09-05T17:32:45.666Z,99067.78
2022-09-05T17:35:26.805Z,99068.13
2022-09-05T17:38:29.120Z,99068.81
2022-09-05T17:41:51.451Z,99080.59
2022-09-05T17:44:23.326Z,99081.59
2022-09-05T17:47:08.098Z,99081.44
2022-09-05T17:49:45.059Z,99087.84
2022-09-05T17:52:24.186Z,99089.69
2022-09-05T17:54:55.515Z,99083.63
2022-09-05T17:57:51.228Z,99092.38
2022-09-05T18:01:07.612Z,99090.00
2022-09-05T18:04:16.789Z,99099.81
2022-09-05T18:07:00.697Z,99104.16
2022-09-05T18:10:12.842Z,99099.81
2022-09-05T18:13:12.984Z,99104.00
2022-09-05T18:16:11.793Z,99102.16
2022-09-05T18:21:48.522Z,99105.19
2022-09-05T18:24:33.662Z,99110.56
2022-09-05T18:27:37.849Z,99107.69
2022-09-05T18:30:07.462Z,99108.53
2022-09-05T18:32:45.322Z,99112.25
2022-09-05T18:35:37.798Z,99111.41
2022-09-05T18:38:51.909Z,99114.09
2022-09-05T18:41:22.651Z,99116.59
2022-09-05T18:44:13.683Z,99112.25
2022-09-05T18:46:50.376Z,99107.88
2022-09-05T18:50:23.239Z,99114.09
2022-09-05T18:52:23.964Z,99114.25
2022-09-05T18:56:11.425Z,99108.19
2022-09-05T18:57:50.149Z,99103.81
2022-09-05T19:00:35.045Z,99105.69
2022-09-05T19:03:16.993Z,99106.50
2022-09-05T19:05:49.073Z,99102.78
2022-09-05T19:08:28.785Z,99104.50
2022-09-05T19:11:09.191Z,99097.41
2022-09-05T19:13:50.990Z,99100.28
2022-09-05T19:16:47.281Z,99102.16
2022-09-05T19:19:18.606Z,99096.75
2022-09-05T19:22:07.063Z,99096.75
2022-09-05T19:24:45.050Z,99089.66
2022-09-05T19:30:31.135Z,99087.84
2022-09-05T19:36:46.846Z,99086.97
2022-09-05T19:36:50.766Z,99091.53
2022-09-05T19:37:22.140Z,99080.06
2022-09-05T19:40:15.728Z,99082.75
2022-09-05T19:47:27.670Z,99086.31
2022-09-05T19:47:39.307Z,99077.56
2022-09-05T19:47:43.634Z,99077.38
2022-09-05T19:50:11.506Z,99081.94
2022-09-05T19:52:40.847Z,99072.19
2022-09-05T19:55:21.958Z,99069.47
2022-09-05T19:58:18.437Z,99070.47
2022-09-05T20:00:41.856Z,99071.50
2022-09-05T20:03:21.014Z,99067.78
2022-09-05T20:05:51.569Z,99072.31
2022-09-05T20:08:31.842Z,99065.09
2022-09-05T20:11:03.869Z,99068.81
2022-09-05T20:13:32.495Z,99068.81
2022-09-05T20:16:02.061Z,99067.97
2022-09-05T20:18:37.518Z,99061.75
2022-09-05T20:21:11.239Z,99061.91
2022-09-05T20:23:42.353Z,99064.44
2022-09-05T20:26:11.041Z,99062.72
2022-09-05T20:28:40.177Z,99066.78
2022-09-05T20:31:13.357Z,99059.53
2022-09-05T20:33:48.156Z,99067.63
2022-09-05T20:43:11.040Z,99058.72
2022-09-05T20:43:19.263Z,99056.00
2022-09-05T20:43:32.031Z,99058.72
2022-09-05T20:44:55.622Z,99066.78
2022-09-05T20:52:49.060Z,99068.31
2022-09-05T20:54:12.677Z,99068.94
2022-09-05T20:54:22.575Z,99068.63
2022-09-05T20:56:11.135Z,99067.63
2022-09-05T20:58:39.898Z,99069.13
2022-09-05T21:01:21.354Z,99061.91
2022-09-05T21:03:59.049Z,99055.69
2022-09-05T21:06:33.877Z,99059.22
2022-09-05T21:09:24.560Z,99059.22
2022-09-05T21:11:54.134Z,99058.38
2022-09-05T21:14:24.220Z,99057.34
2022-09-05T21:16:58.814Z,99064.59
2022-09-05T21:19:31.241Z,99056.69
2022-09-05T21:22:05.287Z,99059.53
2022-09-05T21:24:34.966Z,99068.44
2022-09-05T21:27:17.455Z,99071.16
2022-09-05T21:29:46.891Z,99075.69
2022-09-05T21:32:22.922Z,99067.78
2022-09-05T21:34:55.123Z,99071.97
2022-09-05T21:37:24.627Z,99071.34
2022-09-05T21:39:58.625Z,99075.84
2022-09-05T21:47:33.785Z,99065.25
2022-09-05T21:47:46.871Z,99057.34
2022-09-05T21:48:08.633Z,99059.03
2022-09-05T21:50:40.926Z,99056.34
2022-09-05T21:55:10.705Z,99066.44
2022-09-05T21:59:21.007Z,99059.34
2022-09-05T21:59:30.399Z,99070.13
2022-09-05T22:01:52.464Z,99071.97
2022-09-05T22:04:22.666Z,99081.41
2022-09-05T22:06:53.190Z,99074.50
2022-09-05T22:09:23.758Z,99083.44
2022-09-05T22:11:53.752Z,99092.00
2022-09-05T22:14:23.864Z,99081.56
2022-09-05T22:16:54.406Z,99069.97
2022-09-05T22:19:36.765Z,99071.81
2022-09-05T22:22:16.627Z,99067.59
2022-09-05T22:24:51.096Z,99068.78
2022-09-05T22:27:21.101Z,99062.56
2022-09-05T22:29:50.496Z,99057.19
2022-09-05T22:32:34.711Z,99053.66
2022-09-05T22:35:27.977Z,99051.78
2022-09-05T22:38:07.128Z,99047.56
2022-09-05T22:40:39.025Z,99043.88
2022-09-05T22:43:11.426Z,99045.72
2022-09-05T22:45:41.571Z,99032.41
2022-09-05T22:48:11.527Z,99038.81
2022-09-05T22:50:40.294Z,99037.16
2022-09-05T22:53:09.891Z,99043.38
2022-09-05T22:55:40.893Z,99039.84
2022-09-05T22:58:11.969Z,99037.16
2022-09-05T23:00:41.738Z,99024.53
2022-09-05T23:03:10.326Z,99026.19
2022-09-05T23:05:38.757Z,99027.38
2022-09-05T23:08:07.772Z,99030.91
2022-09-05T23:10:36.805Z,99027.56
2022-09-05T23:13:06.301Z,99025.69
2022-09-05T23:15:36.230Z,99028.38
2022-09-05T23:18:05.431Z,99024.19
2022-09-05T23:20:34.296Z,99028.72
2022-09-05T23:23:05.138Z,99025.19
2022-09-05T23:25:33.749Z,99021.50
2022-09-05T23:28:06.818Z,99029.56
2022-09-05T23:30:36.975Z,99023.34
2022-09-05T23:33:07.012Z,99026.03
2022-09-05T23:35:35.494Z,99016.25
2022-09-05T23:38:03.931Z,99027.03
2022-09-05T23:40:32.375Z,99019.13
2022-09-05T23:43:01.385Z,99018.28
2022-09-05T23:45:30.005Z,99015.59
2022-09-05T23:48:00.207Z,99016.44
2022-09-05T23:50:28.868Z,99007.53
2022-09-05T23:52:57.999Z,99003.66
2022-09-05T23:55:27.282Z,99016.78
2022-09-05T23:57:58.390Z,99020.47
